Time;durP1;ratioP1;P1;durP2;ratioP2;P2;SDS_P1;SDS_P2;PMS_P1;PMS_P2;Temp;Humidity;BMP_temperature;BMP_pressure;BME280_temperature;BME280_humidity;BME280_pressure;Samples;Min_cycle;Max_cycle;Signal;HPM_P1;HPM_P2
2022/07/17 00:01:48;;;;;;;2.10;1.40;;;;;;;13.64;100.00;102778.56;4979056;28;20189;-73
2022/07/17 00:04:14;;;;;;;5.87;1.93;;;;;;;13.30;100.00;102696.06;4977936;28;20267;-73
2022/07/17 00:06:40;;;;;;;4.90;1.90;;;;;;;13.49;100.00;102747.94;4993008;28;20448;-73
2022/07/17 00:09:05;;;;;;;3.33;2.27;;;;;;;13.68;100.00;102787.16;4976287;28;20484;-73
2022/07/17 00:11:30;;;;;;;2.57;2.10;;;;;;;13.47;100.00;102793.09;4983559;28;20197;-72
2022/07/17 00:13:56;;;;;;;5.50;2.77;;;;;;;12.93;100.00;102674.19;4977968;28;20186;-73
2022/07/17 00:16:22;;;;;;;4.60;3.10;;;;;;;13.20;100.00;102713.41;4977699;28;20681;-73
2022/07/17 00:18:48;;;;;;;5.60;3.90;;;;;;;12.83;100.00;102645.59;4979800;28;20217;-74
2022/07/17 00:21:13;;;;;;;6.00;3.63;;;;;;;12.66;100.00;102611.63;4978352;28;20445;-74
2022/07/17 00:23:39;;;;;;;5.10;2.37;;;;;;;13.15;100.00;102740.03;4979632;28;20807;-75
2022/07/17 00:26:05;;;;;;;3.70;2.10;;;;;;;13.22;100.00;102790.38;4979801;28;20186;-73
2022/07/17 00:28:30;;;;;;;4.60;2.50;;;;;;;12.38;100.00;102643.41;4981324;28;20202;-75
2022/07/17 00:30:55;;;;;;;5.53;2.00;;;;;;;13.42;100.00;102785.50;4980155;28;20193;-74
2022/07/17 00:33:21;;;;;;;3.70;1.50;;;;;;;12.09;100.00;102604.38;4978231;28;20186;-73
2022/07/17 00:35:46;;;;;;;4.63;2.27;;;;;;;12.91;100.00;102722.88;4981183;28;20615;-74
2022/07/17 00:38:13;;;;;;;2.50;1.77;;;;;;;13.13;100.00;102769.81;4981864;28;20707;-74
2022/07/17 00:40:39;;;;;;;4.43;1.97;;;;;;;13.27;100.00;102792.59;4981287;28;20553;-73
2022/07/17 00:43:04;;;;;;;2.50;1.70;;;;;;;13.23;100.00;102788.53;4983451;28;20436;-74
2022/07/17 00:45:30;;;;;;;2.70;1.77;;;;;;;12.20;100.00;102622.03;4980372;28;20191;-74
2022/07/17 00:48:00;;;;;;;3.30;1.60;;;;;;;13.11;100.00;102796.94;4978296;28;20659;-74
2022/07/17 00:50:30;;;;;;;3.80;1.70;;;;;;;13.20;100.00;102792.41;4977931;28;20189;-74
2022/07/17 00:52:56;;;;;;;4.40;1.60;;;;;;;12.83;100.00;102739.84;4978029;28;20444;-73
2022/07/17 00:55:22;;;;;;;3.23;1.47;;;;;;;13.11;100.00;102812.28;4975966;28;20444;-74
2022/07/17 00:57:49;;;;;;;4.27;1.73;;;;;;;12.61;100.00;102692.03;4984362;28;20210;-74
2022/07/17 01:00:18;;;;;;;4.60;1.67;;;;;;;12.99;100.00;102754.31;4982202;28;20602;-74
2022/07/17 01:02:47;;;;;;;9.47;2.00;;;;;;;12.90;100.00;102761.56;4982821;28;20445;-74
2022/07/17 01:05:12;;;;;;;4.73;1.73;;;;;;;12.52;100.00;102733.41;4981266;28;20531;-74
2022/07/17 01:07:37;;;;;;;2.60;1.23;;;;;;;12.71;100.00;102776.19;4982902;28;20532;-73
2022/07/17 01:10:03;;;;;;;4.57;1.77;;;;;;;12.75;100.00;102752.47;4980248;28;20691;-74
2022/07/17 01:12:30;;;;;;;7.13;2.33;;;;;;;12.06;100.00;102671.09;4980419;28;20177;-74
2022/07/17 01:14:57;;;;;;;3.30;2.10;;;;;;;12.86;100.00;102789.84;4987190;28;20225;-74
2022/07/17 01:17:22;;;;;;;7.13;3.27;;;;;;;11.99;100.00;102668.22;4978663;28;20826;-73
2022/07/17 01:19:48;;;;;;;5.57;2.73;;;;;;;12.48;100.00;102767.06;4982792;28;20458;-73
2022/07/17 01:22:13;;;;;;;3.50;2.40;;;;;;;12.58;100.00;102763.22;4980686;28;20194;-73
2022/07/17 01:24:39;;;;;;;4.00;2.23;;;;;;;11.21;100.00;102518.75;4985216;28;20190;-73
2022/07/17 01:27:05;;;;;;;5.77;2.33;;;;;;;12.07;100.00;102681.69;4985525;28;20532;-74
2022/07/17 01:29:31;;;;;;;3.90;1.97;;;;;;;10.55;100.00;102442.44;4981707;28;20465;-73
2022/07/17 01:31:56;;;;;;;3.77;1.77;;;;;;;12.12;100.00;102705.38;4982990;28;20441;-73
2022/07/17 01:34:22;;;;;;;3.77;1.87;;;;;;;12.56;100.00;102781.38;4979374;28;20733;-74
2022/07/17 01:36:47;;;;;;;3.70;2.33;;;;;;;12.46;100.00;102752.91;4982920;28;20196;-74
2022/07/17 01:39:12;;;;;;;3.10;1.80;;;;;;;12.26;100.00;102728.97;4979424;28;20552;-74
2022/07/17 01:41:38;;;;;;;4.03;2.50;;;;;;;12.65;100.00;102776.88;4982449;28;20659;-74
2022/07/17 01:44:04;;;;;;;3.80;2.27;;;;;;;11.66;100.00;102618.84;4981399;28;20585;-75
2022/07/17 01:46:30;;;;;;;3.00;1.80;;;;;;;12.25;100.00;102775.72;4982344;28;20225;-74
2022/07/17 01:48:55;;;;;;;2.37;1.30;;;;;;;12.53;100.00;102791.66;4980046;28;20458;-74
2022/07/17 01:51:21;;;;;;;4.40;1.90;;;;;;;11.55;100.00;102660.28;4980369;28;20181;-74
2022/07/17 01:53:46;;;;;;;5.50;1.70;;;;;;;11.93;100.00;102691.22;4982329;28;20269;-74
2022/07/17 01:56:12;;;;;;;2.50;1.57;;;;;;;12.07;100.00;102756.16;4975635;28;20213;-73
2022/07/17 01:58:38;;;;;;;5.27;1.57;;;;;;;12.27;100.00;102780.97;4981595;28;20228;-75
2022/07/17 02:01:03;;;;;;;2.90;1.57;;;;;;;11.71;100.00;102684.53;4980967;28;20506;-74
2022/07/17 02:03:29;;;;;;;4.23;1.73;;;;;;;12.08;100.00;102769.44;4980210;28;20446;-74
2022/07/17 02:05:54;;;;;;;4.10;1.63;;;;;;;11.88;100.00;102744.63;4982833;28;20194;-73
2022/07/17 02:08:20;;;;;;;3.17;1.70;;;;;;;12.32;100.00;102809.03;4978900;28;20724;-75
2022/07/17 02:10:45;;;;;;;5.63;1.73;;;;;;;12.27;100.00;102779.13;4980326;28;20197;-75
2022/07/17 02:13:11;;;;;;;2.37;1.30;;;;;;;12.49;100.00;102819.88;4977519;28;20671;-74
2022/07/17 02:15:36;;;;;;;4.17;1.50;;;;;;;12.35;100.00;102792.59;4981108;28;20185;-74
2022/07/17 02:18:01;;;;;;;3.30;1.70;;;;;;;11.82;100.00;102704.91;4980107;28;20706;-74
2022/07/17 02:20:27;;;;;;;2.90;1.30;;;;;;;11.80;100.00;102749.94;4979043;28;20468;-74
2022/07/17 02:22:53;;;;;;;4.10;1.80;;;;;;;11.47;100.00;102716.66;4982389;28;20712;-74
2022/07/17 02:25:18;;;;;;;2.03;1.50;;;;;;;12.16;100.00;102842.13;4981867;28;20264;-74
2022/07/17 02:27:44;;;;;;;3.03;1.90;;;;;;;12.04;100.00;102788.75;4981721;28;20181;-73
2022/07/17 02:30:15;;;;;;;6.30;2.27;;;;;;;11.63;100.00;102730.22;4976909;28;21000;-73
2022/07/17 02:32:41;;;;;;;3.23;1.80;;;;;;;12.29;100.00;102822.81;4976647;28;20273;-74
2022/07/17 02:35:09;;;;;;;5.13;2.40;;;;;;;12.09;100.00;102787.28;4983314;28;20445;-74
2022/07/17 02:37:35;;;;;;;3.40;1.87;;;;;;;12.09;100.00;102773.84;4983058;28;20481;-74
2022/07/17 02:40:01;;;;;;;5.67;1.83;;;;;;;11.61;100.00;102715.25;4982485;28;20904;-74
2022/07/17 02:42:28;;;;;;;6.23;2.20;;;;;;;12.12;100.00;102813.00;4980136;28;20445;-74
2022/07/17 02:44:54;;;;;;;4.63;1.80;;;;;;;12.23;100.00;102799.25;4982368;28;20662;-74
2022/07/17 02:47:28;;;;;;;3.60;2.20;;;;;;;11.99;100.00;102747.03;4980241;28;20437;-74
2022/07/17 02:49:54;;;;;;;2.57;1.93;;;;;;;12.27;100.00;102781.81;4981455;28;20879;-74
2022/07/17 02:52:20;;;;;;;4.33;1.80;;;;;;;11.87;100.00;102696.41;4981543;28;20445;-74
2022/07/17 02:54:45;;;;;;;2.90;1.70;;;;;;;12.25;100.00;102786.50;4982254;28;20190;-74
2022/07/17 02:57:12;;;;;;;3.50;1.53;;;;;;;11.58;100.00;102684.16;4982244;28;20612;-74
2022/07/17 02:59:37;;;;;;;4.00;1.70;;;;;;;12.33;100.00;102805.38;4984495;28;20901;-74
2022/07/17 03:02:03;;;;;;;2.50;1.40;;;;;;;12.61;100.00;102845.47;4980576;28;20438;-74
2022/07/17 03:04:29;;;;;;;7.23;2.50;;;;;;;12.43;100.00;102846.44;4979320;28;20193;-74
2022/07/17 03:06:54;;;;;;;3.80;2.17;;;;;;;11.99;100.00;102783.84;4980120;28;20440;-74
2022/07/17 03:09:20;;;;;;;3.83;2.00;;;;;;;11.40;100.00;102704.84;4980131;28;20665;-74
2022/07/17 03:11:45;;;;;;;3.43;1.43;;;;;;;11.17;100.00;102681.22;4980786;28;20269;-73
2022/07/17 03:14:11;;;;;;;3.40;1.60;;;;;;;11.50;100.00;102697.53;4979997;28;20563;-74
2022/07/17 03:16:36;;;;;;;3.33;1.60;;;;;;;11.90;100.00;102736.41;4979935;28;20796;-73
2022/07/17 03:19:02;;;;;;;3.17;1.60;;;;;;;12.27;100.00;102816.78;4977022;28;20228;-74
2022/07/17 03:21:27;;;;;;;2.27;1.30;;;;;;;10.67;100.00;102579.84;4980449;28;20217;-73
2022/07/17 03:23:52;;;;;;;4.60;1.60;;;;;;;12.14;100.00;102816.38;4976600;28;20292;-74
2022/07/17 03:26:18;;;;;;;2.40;1.60;;;;;;;11.86;100.00;102768.19;4980468;28;20248;-73
2022/07/17 03:28:43;;;;;;;2.70;1.77;;;;;;;11.48;100.00;102711.13;4980078;28;20272;-73
2022/07/17 03:31:09;;;;;;;2.93;1.70;;;;;;;11.99;100.00;102765.88;4979441;28;20554;-74
2022/07/17 03:33:34;;;;;;;5.07;1.90;;;;;;;12.02;100.00;102739.66;4979096;28;20911;-74
2022/07/17 03:35:59;;;;;;;2.63;1.20;;;;;;;12.58;100.00;102832.34;4982072;28;20193;-74
2022/07/17 03:38:25;;;;;;;3.83;1.90;;;;;;;12.05;100.00;102729.41;4980613;28;20221;-74
2022/07/17 03:40:50;;;;;;;3.77;1.60;;;;;;;12.61;100.00;102814.03;4978176;28;20240;-74
2022/07/17 03:43:16;;;;;;;3.50;1.73;;;;;;;12.05;100.00;102696.31;4983776;28;20276;-74
2022/07/17 03:45:41;;;;;;;3.00;1.53;;;;;;;12.42;100.00;102766.72;4979476;28;20192;-74
2022/07/17 03:48:07;;;;;;;4.93;1.90;;;;;;;12.61;100.00;102811.34;4983935;28;20265;-74
2022/07/17 03:50:32;;;;;;;4.90;1.40;;;;;;;12.66;100.00;102810.84;4978119;28;20276;-74
2022/07/17 03:52:57;;;;;;;3.90;1.70;;;;;;;12.32;100.00;102722.94;4975708;28;20181;-75
2022/07/17 03:55:23;;;;;;;1.70;1.23;;;;;;;12.47;100.00;102754.59;4981157;28;20209;-74
2022/07/17 03:57:48;;;;;;;2.63;1.50;;;;;;;12.63;100.00;102786.94;4983011;28;20234;-75
2022/07/17 04:00:15;;;;;;;5.37;1.50;;;;;;;13.09;100.00;102822.38;4981544;28;20213;-74
2022/07/17 04:02:40;;;;;;;3.77;1.17;;;;;;;12.33;100.00;102707.66;4977614;28;20646;-74
2022/07/17 04:05:09;;;;;;;3.90;1.27;;;;;;;12.51;100.00;102745.19;4981351;28;20456;-74
2022/07/17 04:07:39;;;;;;;3.30;1.50;;;;;;;12.47;100.00;102720.47;4980185;28;20174;-74
2022/07/17 04:10:05;;;;;;;3.77;1.30;;;;;;;12.49;100.00;102739.13;4976553;28;20465;-75
2022/07/17 04:12:31;;;;;;;6.43;2.17;;;;;;;13.14;100.00;102840.75;4981105;28;20449;-74
2022/07/17 04:14:57;;;;;;;5.00;1.90;;;;;;;12.71;100.00;102784.28;4979704;28;20441;-74
2022/07/17 04:17:22;;;;;;;2.40;1.40;;;;;;;12.50;100.00;102719.28;4980779;28;20465;-74
2022/07/17 04:19:48;;;;;;;2.00;1.20;;;;;;;12.89;100.00;102749.94;4978067;28;20210;-73
2022/07/17 04:22:15;;;;;;;2.80;1.40;;;;;;;13.06;100.00;102796.59;4978795;28;20186;-73
2022/07/17 04:24:40;;;;;;;3.67;1.43;;;;;;;13.28;100.00;102823.94;4977714;28;20434;-73
2022/07/17 04:27:06;;;;;;;2.23;1.17;;;;;;;13.08;100.00;102782.97;4980420;28;20448;-74
2022/07/17 04:29:32;;;;;;;3.20;1.50;;;;;;;12.27;100.00;102644.59;4980169;28;20568;-73
2022/07/17 04:31:57;;;;;;;3.50;1.33;;;;;;;13.47;100.00;102799.31;4981771;28;20452;-73
2022/07/17 04:34:23;;;;;;;3.20;0.97;;;;;;;12.74;100.00;102673.53;4982209;28;20261;-74
2022/07/17 04:36:48;;;;;;;4.13;1.40;;;;;;;11.77;100.00;102513.69;4982528;28;20686;-74
2022/07/17 04:39:13;;;;;;;1.63;1.20;;;;;;;12.96;100.00;102739.38;4985153;28;20217;-74
2022/07/17 04:41:39;;;;;;;3.70;1.50;;;;;;;12.65;100.00;102721.16;4985237;28;20574;-74
2022/07/17 04:44:04;;;;;;;2.40;1.00;;;;;;;13.76;100.00;102830.28;4979345;28;20206;-73
2022/07/17 04:46:30;;;;;;;1.67;1.20;;;;;;;13.79;100.00;102817.28;4979716;28;20181;-73
2022/07/17 04:48:55;;;;;;;2.33;1.20;;;;;;;13.77;100.00;102794.22;4983846;28;20593;-73
2022/07/17 04:51:20;;;;;;;3.83;1.17;;;;;;;13.66;100.00;102817.00;4979653;28;20693;-73
2022/07/17 04:53:46;;;;;;;3.00;1.30;;;;;;;13.03;100.00;102688.34;4981238;28;20240;-73
2022/07/17 04:56:11;;;;;;;1.77;0.87;;;;;;;13.55;100.00;102766.13;4983491;28;20189;-73
2022/07/17 04:58:37;;;;;;;3.83;1.13;;;;;;;13.97;100.00;102813.53;4983659;28;20699;-73
2022/07/17 05:01:02;;;;;;;2.40;1.23;;;;;;;13.64;100.00;102710.31;4981219;28;20589;-73
2022/07/17 05:03:27;;;;;;;4.47;1.30;;;;;;;13.69;100.00;102716.03;4982887;28;20189;-74
2022/07/17 05:05:53;;;;;;;2.90;1.37;;;;;;;14.27;100.00;102803.00;4981025;28;20666;-73
2022/07/17 05:08:18;;;;;;;4.10;1.23;;;;;;;13.50;100.00;102685.75;4982759;28;20247;-73
2022/07/17 05:10:45;;;;;;;2.00;1.00;;;;;;;14.10;100.00;102762.56;4984430;28;20604;-73
2022/07/17 05:13:12;;;;;;;2.30;1.07;;;;;;;14.35;100.00;102778.63;4979152;28;20197;-72
2022/07/17 05:15:37;;;;;;;1.57;1.27;;;;;;;14.28;100.00;102767.72;4983299;28;20953;-73
2022/07/17 05:18:03;;;;;;;2.20;1.20;;;;;;;14.46;100.00;102799.84;4979893;28;20460;-73
2022/07/17 05:20:28;;;;;;;1.67;1.10;;;;;;;14.54;100.00;102801.69;4978688;28;20201;-73
2022/07/17 05:22:54;;;;;;;4.83;1.43;;;;;;;14.54;100.00;102797.13;4983629;28;20182;-73
2022/07/17 05:25:19;;;;;;;1.90;1.30;;;;;;;14.25;100.00;102750.00;4983729;28;20189;-74
2022/07/17 05:27:45;;;;;;;4.20;1.23;;;;;;;14.21;100.00;102735.19;4983581;28;20193;-73
2022/07/17 05:30:10;;;;;;;2.83;1.10;;;;;;;14.91;100.00;102841.50;4981051;28;20279;-73
2022/07/17 05:32:35;;;;;;;4.33;1.40;;;;;;;14.90;100.00;102810.09;4984540;28;20186;-73
2022/07/17 05:35:01;;;;;;;2.07;1.20;;;;;;;14.41;100.00;102732.91;4979768;28;20198;-74
2022/07/17 05:37:26;;;;;;;3.80;1.57;;;;;;;14.52;100.00;102745.16;4980234;28;20255;-73
2022/07/17 05:39:52;;;;;;;5.93;1.70;;;;;;;14.76;100.00;102784.69;4983459;28;20210;-73
2022/07/17 05:42:17;;;;;;;2.50;1.10;;;;;;;14.61;100.00;102744.09;4979304;28;20247;-74
2022/07/17 05:44:43;;;;;;;1.93;1.30;;;;;;;14.29;100.00;102715.44;4982064;28;20181;-74
2022/07/17 05:47:08;;;;;;;4.20;1.30;;;;;;;15.08;100.00;102834.97;4982909;28;20427;-73
2022/07/17 05:49:34;;;;;;;3.20;1.20;;;;;;;14.85;100.00;102793.59;4984451;28;20236;-74
2022/07/17 05:52:00;;;;;;;6.20;1.33;;;;;;;14.88;100.00;102814.84;4980614;28;20213;-74
2022/07/17 05:54:25;;;;;;;4.97;1.40;;;;;;;14.95;100.00;102840.09;4983093;28;20881;-74
2022/07/17 05:56:51;;;;;;;4.77;1.33;;;;;;;14.96;100.00;102863.41;4979168;28;20618;-73
2022/07/17 05:59:16;;;;;;;3.73;1.10;;;;;;;14.31;100.00;102770.06;4981227;28;20209;-73
2022/07/17 06:01:42;;;;;;;3.63;1.60;;;;;;;14.87;100.00;102854.53;4977554;28;20186;-74
2022/07/17 06:04:07;;;;;;;2.97;1.30;;;;;;;15.07;100.00;102860.31;4981478;28;20181;-74
2022/07/17 06:06:32;;;;;;;2.00;1.37;;;;;;;14.50;100.00;102747.19;4983255;28;20552;-73
2022/07/17 06:08:58;;;;;;;1.93;1.27;;;;;;;14.67;100.00;102770.41;4979547;28;20293;-73
2022/07/17 06:11:23;;;;;;;2.77;1.30;;;;;;;15.07;100.00;102825.19;4983591;28;20190;-73
2022/07/17 06:13:49;;;;;;;2.90;1.10;;;;;;;14.71;100.00;102760.06;4977892;28;20266;-74
2022/07/17 06:16:14;;;;;;;1.60;1.00;;;;;;;14.99;100.00;102792.81;4981325;28;20194;-73
2022/07/17 06:18:39;;;;;;;6.77;2.07;;;;;;;15.32;100.00;102844.72;4981025;28;20201;-73
2022/07/17 06:21:05;;;;;;;4.87;1.60;;;;;;;15.30;100.00;102848.63;4977371;28;20201;-73
2022/07/17 06:23:30;;;;;;;2.20;1.30;;;;;;;15.27;100.00;102822.78;4982108;28;20716;-74
2022/07/17 06:25:57;;;;;;;3.63;1.30;;;;;;;15.11;100.00;102790.50;4982474;28;20265;-73
2022/07/17 06:28:22;;;;;;;4.20;1.40;;;;;;;15.24;100.00;102779.91;4979241;28;21014;-73
2022/07/17 06:30:48;;;;;;;3.23;1.27;;;;;;;15.38;100.00;102794.50;4980172;28;20631;-73
2022/07/17 06:33:13;;;;;;;1.60;0.87;;;;;;;15.22;100.00;102776.56;4983021;28;20190;-74
2022/07/17 06:35:38;;;;;;;1.53;1.00;;;;;;;15.07;100.00;102736.00;4980264;28;21172;-74
2022/07/17 06:38:04;;;;;;;3.67;1.60;;;;;;;15.84;100.00;102837.69;4979379;28;20273;-74
2022/07/17 06:40:30;;;;;;;3.40;1.10;;;;;;;15.71;100.00;102851.03;4980380;28;20281;-71
2022/07/17 06:42:55;;;;;;;4.80;1.60;;;;;;;15.97;100.00;102839.78;4975664;28;20225;-74
2022/07/17 06:45:21;;;;;;;1.90;1.17;;;;;;;15.59;100.00;102799.19;4977208;28;20610;-74
2022/07/17 06:47:46;;;;;;;2.37;1.10;;;;;;;15.12;100.00;102740.81;4979660;28;20627;-73
2022/07/17 06:50:12;;;;;;;1.67;0.90;;;;;;;15.90;100.00;102869.41;4981133;28;20214;-74
2022/07/17 06:52:37;;;;;;;4.47;1.40;;;;;;;15.98;100.00;102847.69;4980290;28;20186;-74
2022/07/17 06:55:03;;;;;;;4.30;1.23;;;;;;;15.67;100.00;102804.53;4975315;28;20559;-74
2022/07/17 06:57:28;;;;;;;5.13;0.97;;;;;;;15.86;100.00;102841.06;4975452;28;20209;-73
2022/07/17 06:59:54;;;;;;;5.13;1.27;;;;;;;15.52;100.00;102772.03;4975205;28;20340;-75
2022/07/17 07:02:19;;;;;;;6.27;1.30;;;;;;;16.09;100.00;102845.56;4979540;28;20673;-75
2022/07/17 07:04:45;;;;;;;6.47;1.03;;;;;;;15.49;100.00;102761.59;4977094;28;20882;-78
2022/07/17 07:07:11;;;;;;;2.93;1.40;;;;;;;16.04;100.00;102833.41;4975894;28;20190;-74
2022/07/17 07:09:36;;;;;;;5.10;1.17;;;;;;;16.18;100.00;102822.78;4977414;28;20238;-73
2022/07/17 07:12:02;;;;;;;2.77;1.00;;;;;;;15.21;100.00;102695.63;4974264;28;20480;-73
2022/07/17 07:14:28;;;;;;;3.33;1.30;;;;;;;15.62;100.00;102725.78;4982711;28;20186;-74
2022/07/17 07:16:53;;;;;;;2.40;0.90;;;;;;;15.07;100.00;102652.22;4983103;28;20452;-75
2022/07/17 07:19:19;;;;;;;4.50;1.00;;;;;;;16.41;100.00;102817.25;4978041;28;20210;-76
2022/07/17 07:21:44;;;;;;;4.37;1.40;;;;;;;16.17;100.00;102804.84;4980025;28;20218;-74
2022/07/17 07:24:09;;;;;;;2.60;1.10;;;;;;;16.07;100.00;102788.88;4979131;28;20194;-74
2022/07/17 07:26:35;;;;;;;4.80;1.03;;;;;;;16.39;100.00;102868.03;4979489;28;20272;-74
2022/07/17 07:29:00;;;;;;;3.50;0.90;;;;;;;15.91;100.00;102752.03;4975398;28;20585;-73
2022/07/17 07:31:26;;;;;;;4.60;1.30;;;;;;;16.55;100.00;102859.72;4990926;28;20216;-74
2022/07/17 07:33:52;;;;;;;1.80;0.93;;;;;;;16.45;100.00;102827.50;4974621;28;20802;-73
2022/07/17 07:36:17;;;;;;;2.10;0.80;;;;;;;16.18;100.00;102783.00;4980075;28;20189;-74
2022/07/17 07:38:44;;;;;;;3.10;1.10;;;;;;;16.70;100.00;102849.69;4979626;28;20472;-74
2022/07/17 07:41:10;;;;;;;5.47;1.07;;;;;;;16.39;100.00;102797.63;4977925;28;20572;-73
2022/07/17 07:43:36;;;;;;;7.83;1.30;;;;;;;16.20;100.00;102755.72;4980783;28;20565;-73
2022/07/17 07:46:02;;;;;;;3.30;1.23;;;;;;;16.75;100.00;102870.81;4980510;28;20191;-73
2022/07/17 07:48:28;;;;;;;2.20;1.00;;;;;;;16.75;100.00;102873.50;4977938;28;20216;-73
2022/07/17 07:50:54;;;;;;;1.50;0.87;;;;;;;16.66;100.00;102878.19;4981401;28;20444;-73
2022/07/17 07:53:19;;;;;;;3.80;1.10;;;;;;;16.89;100.00;102896.19;4978420;28;20192;-74
2022/07/17 07:55:44;;;;;;;2.40;0.97;;;;;;;16.43;100.00;102805.19;4978107;28;20946;-74
2022/07/17 07:58:12;;;;;;;6.30;1.07;;;;;;;16.47;100.00;102778.56;4980127;28;20268;-73
2022/07/17 08:00:39;;;;;;;1.60;1.00;;;;;;;17.10;100.00;102877.25;4979854;28;20272;-73
2022/07/17 08:03:05;;;;;;;1.60;1.00;;;;;;;17.28;100.00;102886.81;4982910;28;20448;-74
2022/07/17 08:05:31;;;;;;;2.90;1.10;;;;;;;16.46;100.00;102831.91;4983147;28;20448;-74
2022/07/17 08:07:57;;;;;;;4.30;1.30;;;;;;;16.67;100.00;102836.50;4998146;28;20190;-70
2022/07/17 08:10:23;;;;;;;3.37;1.20;;;;;;;16.65;100.00;102829.59;4983759;28;20642;-74
2022/07/17 08:12:48;;;;;;;4.43;1.20;;;;;;;16.67;100.00;102843.81;4985414;28;20236;-74
2022/07/17 08:15:16;;;;;;;2.47;1.00;;;;;;;16.85;100.00;102878.66;4982202;28;20476;-74
2022/07/17 08:17:42;;;;;;;2.93;1.10;;;;;;;16.49;100.00;102815.25;4983517;28;20265;-74
2022/07/17 08:20:08;;;;;;;3.23;1.20;;;;;;;15.11;100.00;102595.91;4986719;28;20991;-74
2022/07/17 08:22:34;;;;;;;4.23;1.50;;;;;;;16.71;100.00;102853.22;4985504;28;20538;-78
2022/07/17 08:24:59;;;;;;;2.30;1.23;;;;;;;16.90;100.00;102860.78;4986214;28;20453;-74
2022/07/17 08:27:24;;;;;;;2.97;1.10;;;;;;;16.56;100.00;102776.56;4982340;28;20552;-74
2022/07/17 08:29:50;;;;;;;1.87;0.97;;;;;;;16.16;100.00;102697.56;4980360;28;20210;-74
2022/07/17 08:32:15;;;;;;;1.47;0.80;;;;;;;16.67;100.00;102787.75;4987493;28;20200;-73
2022/07/17 08:34:41;;;;;;;3.90;1.33;;;;;;;16.65;100.00;102787.09;4985087;28;20200;-73
2022/07/17 08:37:06;;;;;;;3.50;1.20;;;;;;;16.54;100.00;102797.59;5000467;28;20194;-77
2022/07/17 08:39:32;;;;;;;6.40;1.23;;;;;;;16.68;100.00;102821.09;4985807;28;20871;-74
2022/07/17 08:41:57;;;;;;;1.80;0.83;;;;;;;16.62;100.00;102768.50;4990191;28;20193;-72
2022/07/17 08:44:23;;;;;;;4.67;1.23;;;;;;;16.29;100.00;102711.28;4983706;28;20193;-75
2022/07/17 08:46:48;;;;;;;5.73;1.33;;;;;;;15.61;100.00;102594.28;4987655;28;20182;-75
2022/07/17 08:49:15;;;;;;;2.90;1.10;;;;;;;17.22;100.00;102874.88;4986885;28;20237;-75
2022/07/17 08:51:41;;;;;;;1.67;1.10;;;;;;;16.47;100.00;102744.19;4986389;28;20277;-74
2022/07/17 08:54:06;;;;;;;2.53;1.00;;;;;;;17.20;100.00;102844.38;4987352;28;20471;-74
2022/07/17 08:56:31;;;;;;;3.00;1.47;;;;;;;15.91;100.00;102613.16;4986938;28;20631;-75
2022/07/17 08:58:57;;;;;;;4.00;1.00;;;;;;;17.40;100.00;102823.72;4981875;28;20214;-74
2022/07/17 09:01:23;;;;;;;2.70;1.33;;;;;;;17.21;100.00;102848.78;4982726;28;20658;-73
2022/07/17 09:04:06;;;;;;;6.30;1.20;;;;;;;17.12;100.00;102837.22;4982312;28;20192;-74
2022/07/17 09:06:32;;;;;;;4.47;1.20;;;;;;;17.73;100.00;102885.53;4982417;28;20864;-74
2022/07/17 09:09:05;;;;;;;4.47;0.90;;;;;;;17.71;100.00;102884.91;4984195;28;20863;-73
2022/07/17 09:11:50;;;;;;;1.03;0.80;;;;;;;17.79;100.00;102890.22;4983368;28;20453;-74
2022/07/17 09:14:16;;;;;;;2.30;0.90;;;;;;;17.58;100.00;102839.50;4983375;28;20964;-75
2022/07/17 09:16:52;;;;;;;3.63;1.27;;;;;;;17.67;100.00;102851.03;4981063;28;20448;-74
2022/07/17 09:19:26;;;;;;;3.77;1.10;;;;;;;17.86;100.00;102884.00;4980510;28;20469;-76
2022/07/17 09:21:52;;;;;;;2.50;1.27;;;;;;;17.66;100.00;102826.84;4998103;28;20439;-75
2022/07/17 09:24:17;;;;;;;0.90;0.83;;;;;;;18.19;100.00;102844.31;4985386;28;20523;-75
2022/07/17 09:26:46;;;;;;;1.57;0.93;;;;;;;17.73;100.00;102752.53;4986455;28;20622;-75
2022/07/17 09:29:12;;;;;;;2.63;1.00;;;;;;;18.55;100.00;102875.00;4986021;28;20210;-74
2022/07/17 09:31:38;;;;;;;5.83;1.63;;;;;;;17.74;100.00;102772.41;4986016;28;20508;-75
2022/07/17 09:34:03;;;;;;;4.63;1.10;;;;;;;17.49;100.00;102747.59;4987999;28;20428;-76
2022/07/17 09:36:29;;;;;;;4.90;1.20;;;;;;;17.97;100.00;102868.00;4983419;28;20663;-76
2022/07/17 09:38:56;;;;;;;3.73;1.13;;;;;;;17.53;100.00;102781.44;4984239;28;20218;-75
2022/07/17 09:41:23;;;;;;;2.57;0.90;;;;;;;18.21;100.00;102861.25;4986242;28;20265;-75
2022/07/17 09:43:52;;;;;;;2.27;1.10;;;;;;;18.28;100.00;102866.72;4983799;28;20441;-77
2022/07/17 09:46:23;;;;;;;3.20;0.90;;;;;;;18.29;100.00;102841.25;4978702;28;20937;-76
2022/07/17 09:48:55;;;;;;;2.07;1.17;;;;;;;18.06;100.00;102757.34;4985958;28;20457;-75
2022/07/17 09:51:29;;;;;;;2.10;1.00;;;;;;;18.17;100.00;102794.81;4984166;28;20812;-74
2022/07/17 09:54:00;;;;;;;3.03;1.03;;;;;;;18.60;100.00;102857.06;4982291;28;20948;-76
2022/07/17 09:56:28;;;;;;;1.30;1.00;;;;;;;18.13;100.00;102798.13;4983320;28;20428;-74
2022/07/17 09:59:00;;;;;;;1.67;0.90;;;;;;;18.55;100.00;102856.81;4982443;28;20475;-75
2022/07/17 10:01:25;;;;;;;2.67;0.90;;;;;;;17.72;100.00;102744.63;4986295;28;20468;-75
2022/07/17 10:03:53;;;;;;;1.90;1.07;;;;;;;18.47;100.00;102852.38;4986198;28;20557;-75
2022/07/17 10:06:20;;;;;;;1.30;0.90;;;;;;;18.34;100.00;102846.06;4980343;28;20181;-76
2022/07/17 10:08:46;;;;;;;1.63;0.90;;;;;;;18.22;100.00;102838.47;4982750;28;20544;-75
2022/07/17 10:11:15;;;;;;;3.33;1.10;;;;;;;18.09;100.00;102797.69;4981167;28;20438;-76
2022/07/17 10:13:43;;;;;;;2.30;0.90;;;;;;;17.69;100.00;102707.03;4979183;28;20929;-74
2022/07/17 10:16:08;;;;;;;3.47;1.20;;;;;;;17.88;100.00;102694.59;4978188;28;20448;-75
2022/07/17 10:18:41;;;;;;;2.47;1.20;;;;;;;18.91;100.00;102850.25;4980759;28;20480;-74
2022/07/17 10:21:18;;;;;;;1.47;0.97;;;;;;;19.19;100.00;102855.56;4984008;28;20190;-74
2022/07/17 10:24:04;;;;;;;1.40;1.00;;;;;;;19.17;100.00;102852.19;4984056;28;20504;-74
2022/07/17 10:26:36;;;;;;;4.83;1.70;;;;;;;18.97;100.00;102850.28;4983878;28;20461;-73
2022/07/17 10:29:02;;;;;;;2.73;0.97;;;;;;;18.33;100.00;102742.00;4983704;28;20440;-74
2022/07/17 10:31:33;;;;;;;1.33;0.80;;;;;;;19.01;100.00;102845.28;4985652;28;20436;-74
2022/07/17 10:34:05;;;;;;;5.00;1.60;;;;;;;18.69;100.00;102842.25;4996418;28;20508;-74
2022/07/17 10:36:38;;;;;;;3.00;1.27;;;;;;;19.02;100.00;102843.41;4986026;28;20505;-74
2022/07/17 10:39:20;;;;;;;2.03;1.13;;;;;;;19.33;100.00;102826.47;4984107;28;20473;-74
2022/07/17 10:42:00;;;;;;;1.70;1.00;;;;;;;18.87;100.00;102768.28;4983836;28;20453;-74
2022/07/17 10:44:31;;;;;;;2.00;1.00;;;;;;;19.52;100.00;102852.84;4982509;28;20817;-74
2022/07/17 10:46:57;;;;;;;4.93;1.40;;;;;;;18.87;100.00;102722.06;4979420;28;20814;-74
2022/07/17 10:49:23;;;;;;;2.23;0.90;;;;;;;19.73;100.00;102819.16;4982218;28;20459;-74
2022/07/17 10:51:50;;;;;;;2.07;1.07;;;;;;;19.49;100.00;102849.69;4981897;28;20478;-74
2022/07/17 10:54:16;;;;;;;5.00;1.40;;;;;;;18.82;100.00;102788.97;4984218;28;20449;-74
2022/07/17 10:56:44;;;;;;;4.00;1.77;;;;;;;18.36;100.00;102721.72;4983004;28;20516;-74
2022/07/17 10:59:10;;;;;;;1.87;1.00;;;;;;;19.15;100.00;102832.50;4982476;28;20481;-74
2022/07/17 11:01:35;;;;;;;1.63;1.40;;;;;;;19.12;100.00;102816.63;4987340;28;20488;-74
2022/07/17 11:04:02;;;;;;;1.97;1.10;;;;;;;18.64;100.00;102752.31;4984941;28;20784;-74
2022/07/17 11:06:31;;;;;;;2.87;1.30;;;;;;;19.53;100.00;102849.09;4983668;28;20182;-74
2022/07/17 11:09:03;;;;;;;2.37;0.90;;;;;;;19.61;100.00;102837.13;4983984;28;20996;-74
2022/07/17 11:11:43;;;;;;;4.60;1.00;;;;;;;19.52;100.00;102779.34;4983551;28;20417;-74
2022/07/17 11:14:18;;;;;;;3.40;1.10;;;;;;;19.81;100.00;102842.59;4980223;28;20429;-74